Time;durP1;ratioP1;P1;durP2;ratioP2;P2;SDS_P1;SDS_P2;PMS_P1;PMS_P2;Temp;Humidity;BMP_temperature;BMP_pressure;BME280_temperature;BME280_humidity;BME280_pressure;Samples;Min_cycle;Max_cycle;Signal;HPM_P1;HPM_P2
2023/05/08 00:02:05;;;;;;;;;;;;;;;8.26;83.41;99470.06;5015018;28;19947;-80
2023/05/08 00:04:30;;;;;;;;;;;;;;;8.60;81.25;99469.56;5030384;28;19939;-80
2023/05/08 00:06:56;;;;;;;;;;;;;;;8.37;82.35;99471.19;5045702;28;19921;-79
2023/05/08 00:09:21;;;;;;;;;;;;;;;8.35;82.48;99473.28;5015555;28;19921;-80
2023/05/08 00:11:46;;;;;;;;;;;;;;;8.12;83.32;99469.38;5046912;28;19967;-79
2023/05/08 00:14:12;;;;;;;;;;;;;;;8.10;84.10;99460.75;5047720;28;19936;-80
2023/05/08 00:16:37;;;;;;;;;;;;;;;8.11;83.62;99466.91;5029284;28;19924;-80
2023/05/08 00:19:02;;;;;;;;;;;;;;;7.90;84.18;99460.13;5023296;28;19961;-80
2023/05/08 00:21:28;;;;;;;;;;;;;;;7.97;84.53;99466.19;5042252;28;19943;-79
2023/05/08 00:23:53;;;;;;;;;;;;;;;8.17;83.74;99460.72;5043854;28;19970;-79
2023/05/08 00:26:19;;;;;;;;;;;;;;;8.11;83.77;99465.06;5009835;28;19928;-79
2023/05/08 00:28:44;;;;;;;;;;;;;;;8.13;83.62;99467.50;5046100;28;19932;-79
2023/05/08 00:31:10;;;;;;;;;;;;;;;7.79;84.65;99463.47;5044821;28;20602;-79
2023/05/08 00:33:35;;;;;;;;;;;;;;;8.00;84.13;99471.09;5038451;28;20323;-79
2023/05/08 00:36:01;;;;;;;;;;;;;;;8.44;81.84;99467.47;5042833;28;20290;-80
2023/05/08 00:38:29;;;;;;;;;;;;;;;7.88;83.92;99466.69;5042895;28;20299;-80
2023/05/08 00:40:54;;;;;;;;;;;;;;;8.71;80.78;99465.34;5024676;28;19925;-80
2023/05/08 00:43:24;;;;;;;;;;;;;;;8.06;83.31;99475.53;5022856;28;20376;-79
2023/05/08 00:45:50;;;;;;;;;;;;;;;8.40;82.48;99476.91;5023808;28;19917;-80
2023/05/08 00:48:15;;;;;;;;;;;;;;;7.93;83.21;99475.63;5039692;28;19951;-79
2023/05/08 00:50:40;;;;;;;;;;;;;;;8.15;83.00;99473.41;5040351;28;19973;-80
2023/05/08 00:53:05;;;;;;;;;;;;;;;8.42;81.94;99476.69;5006582;28;20369;-79
2023/05/08 00:55:31;;;;;;;;;;;;;;;8.37;81.65;99474.69;5026216;28;19943;-80
2023/05/08 00:57:57;;;;;;;;;;;;;;;9.35;79.11;99467.47;5047960;28;19923;-80
2023/05/08 01:00:22;;;;;;;;;;;;;;;9.13;78.57;99471.63;5028074;28;20146;-79
2023/05/08 01:02:47;;;;;;;;;;;;;;;8.22;80.64;99471.53;5024813;28;19929;-79
2023/05/08 01:05:13;;;;;;;;;;;;;;;7.83;83.38;99467.34;5022987;28;19921;-79
2023/05/08 01:07:38;;;;;;;;;;;;;;;8.29;81.83;99467.00;5025745;28;19925;-79
2023/05/08 01:10:04;;;;;;;;;;;;;;;8.35;81.36;99459.97;5026465;28;19990;-79
2023/05/08 01:12:37;;;;;;;;;;;;;;;8.03;82.14;99468.00;5044619;28;19917;-80
2023/05/08 01:15:11;;;;;;;;;;;;;;;7.83;82.50;99466.50;5041173;28;19920;-80
2023/05/08 01:17:39;;;;;;;;;;;;;;;7.76;82.80;99471.88;5042513;28;19921;-79
2023/05/08 01:20:05;;;;;;;;;;;;;;;8.18;81.45;99471.16;5023483;28;20011;-80
2023/05/08 01:22:48;;;;;;;;;;;;;;;7.91;82.94;99466.25;5041516;28;20047;-79
2023/05/08 01:25:32;;;;;;;;;;;;;;;7.73;83.34;99471.50;5038352;28;19952;-80
2023/05/08 01:28:07;;;;;;;;;;;;;;;7.88;83.03;99461.38;5039635;28;20010;-79
2023/05/08 01:30:47;;;;;;;;;;;;;;;7.86;82.17;99466.91;5024971;28;19920;-79
2023/05/08 01:33:17;;;;;;;;;;;;;;;7.66;83.45;99470.72;5017458;28;19974;-79
2023/05/08 01:35:44;;;;;;;;;;;;;;;8.20;81.49;99473.59;5021632;28;19931;-80
2023/05/08 01:38:18;;;;;;;;;;;;;;;7.89;82.96;99469.13;5038773;28;19921;-79
2023/05/08 01:40:55;;;;;;;;;;;;;;;7.94;82.63;99471.97;5039857;28;19924;-80
2023/05/08 01:43:50;;;;;;;;;;;;;;;8.14;82.04;99474.47;5021802;28;20336;-79
2023/05/08 01:46:26;;;;;;;;;;;;;;;7.84;83.23;99476.91;5025137;28;20578;-79
2023/05/08 01:49:10;;;;;;;;;;;;;;;7.76;82.55;99474.53;5038311;28;19921;-79
2023/05/08 01:51:37;;;;;;;;;;;;;;;7.97;82.90;99476.03;5022169;28;19917;-80
2023/05/08 01:54:05;;;;;;;;;;;;;;;7.49;83.02;99473.09;5041835;28;19925;-79
2023/05/08 01:56:31;;;;;;;;;;;;;;;7.83;83.47;99474.47;5045831;28;19949;-79
2023/05/08 01:58:57;;;;;;;;;;;;;;;7.69;84.07;99479.06;5033006;28;20295;-80
2023/05/08 02:01:24;;;;;;;;;;;;;;;7.32;83.96;99478.06;5031059;28;20073;-79
2023/05/08 02:03:49;;;;;;;;;;;;;;;8.16;82.71;99478.53;5047485;28;19952;-79
2023/05/08 02:06:16;;;;;;;;;;;;;;;7.60;81.98;99482.22;5052632;28;20353;-79
2023/05/08 02:08:43;;;;;;;;;;;;;;;7.69;83.43;99478.28;5051260;28;19921;-79
2023/05/08 02:11:10;;;;;;;;;;;;;;;7.58;83.47;99477.09;5050624;28;19928;-79
2023/05/08 02:13:35;;;;;;;;;;;;;;;8.11;82.28;99477.53;5032756;28;19921;-79
2023/05/08 02:16:01;;;;;;;;;;;;;;;7.84;81.17;99473.47;5032756;28;19924;-79
2023/05/08 02:18:28;;;;;;;;;;;;;;;7.72;81.90;99470.69;5035761;28;19928;-79
2023/05/08 02:20:55;;;;;;;;;;;;;;;7.62;83.67;99478.31;5051026;28;19924;-79
2023/05/08 02:23:22;;;;;;;;;;;;;;;7.10;84.38;99478.59;5032960;28;20400;-79
2023/05/08 02:25:47;;;;;;;;;;;;;;;7.31;84.21;99475.63;5049254;28;19917;-80
2023/05/08 02:28:14;;;;;;;;;;;;;;;7.04;84.85;99474.91;5032925;28;19939;-80
2023/05/08 02:30:40;;;;;;;;;;;;;;;7.50;83.76;99472.84;5042389;28;21722;-79
2023/05/08 02:33:07;;;;;;;;;;;;;;;7.04;83.66;99480.22;5028331;28;19932;-79
2023/05/08 02:35:32;;;;;;;;;;;;;;;7.94;82.95;99471.97;5042696;28;20019;-79
2023/05/08 02:37:59;;;;;;;;;;;;;;;7.56;82.32;99479.97;5026752;28;19963;-79
2023/05/08 02:40:26;;;;;;;;;;;;;;;7.28;82.84;99470.72;5040410;28;19928;-79
2023/05/08 02:42:51;;;;;;;;;;;;;;;7.40;83.38;99479.66;5042838;28;20003;-79
2023/05/08 02:45:16;;;;;;;;;;;;;;;7.16;83.47;99478.56;5029783;28;20007;-79
2023/05/08 02:47:42;;;;;;;;;;;;;;;7.49;84.03;99484.50;5029975;28;20352;-79
2023/05/08 02:50:19;;;;;;;;;;;;;;;7.68;82.59;99476.63;5046292;28;19921;-79
2023/05/08 02:52:47;;;;;;;;;;;;;;;7.16;82.82;99478.56;5047557;28;19925;-80
2023/05/08 02:55:22;;;;;;;;;;;;;;;7.77;82.65;99478.00;5045516;28;20372;-79
2023/05/08 02:57:52;;;;;;;;;;;;;;;6.90;83.75;99478.66;5043597;28;19969;-79
2023/05/08 03:00:29;;;;;;;;;;;;;;;7.06;83.57;99478.19;5036845;28;19959;-79
2023/05/08 03:03:03;;;;;;;;;;;;;;;7.01;84.34;99474.53;5026331;28;19917;-79
2023/05/08 03:05:30;;;;;;;;;;;;;;;7.41;83.34;99460.03;5046360;28;19925;-79
2023/05/08 03:07:58;;;;;;;;;;;;;;;6.94;83.34;99473.72;5050796;28;20106;-79
2023/05/08 03:10:27;;;;;;;;;;;;;;;6.79;83.95;99460.72;5048435;28;19938;-79
2023/05/08 03:12:53;;;;;;;;;;;;;;;7.27;82.90;99461.16;5047836;28;19928;-80
2023/05/08 03:15:26;;;;;;;;;;;;;;;7.03;83.81;99472.47;5048044;28;19917;-80
2023/05/08 03:17:53;;;;;;;;;;;;;;;6.96;82.74;99463.72;5028777;28;19975;-79
2023/05/08 03:20:20;;;;;;;;;;;;;;;6.76;83.92;99461.13;5045385;28;20091;-79
2023/05/08 03:22:47;;;;;;;;;;;;;;;6.75;84.50;99464.81;5015235;28;19962;-79
2023/05/08 03:25:13;;;;;;;;;;;;;;;7.20;83.08;99460.34;5028765;28;19927;-79
2023/05/08 03:27:38;;;;;;;;;;;;;;;7.21;83.72;99461.97;5048160;28;19999;-79
2023/05/08 03:30:05;;;;;;;;;;;;;;;7.00;83.53;99464.94;5046480;28;20008;-80
2023/05/08 03:32:31;;;;;;;;;;;;;;;6.98;83.96;99465.16;5028406;28;19917;-79
2023/05/08 03:34:57;;;;;;;;;;;;;;;7.08;82.80;99465.50;5014503;28;20468;-79
2023/05/08 03:37:23;;;;;;;;;;;;;;;7.52;82.19;99467.31;5044881;28;19979;-79
2023/05/08 03:39:49;;;;;;;;;;;;;;;7.09;83.17;99469.81;5042991;28;19925;-79
2023/05/08 03:42:20;;;;;;;;;;;;;;;7.11;83.61;99459.78;5042704;28;19986;-79
2023/05/08 03:44:47;;;;;;;;;;;;;;;7.17;83.63;99458.94;5046673;28;19952;-79
2023/05/08 03:47:12;;;;;;;;;;;;;;;7.34;81.83;99461.91;5044147;28;19944;-79
2023/05/08 03:49:38;;;;;;;;;;;;;;;7.28;83.33;99460.94;5025711;28;19928;-79
2023/05/08 03:52:03;;;;;;;;;;;;;;;6.86;83.59;99466.03;5046304;28;20003;-79
2023/05/08 03:54:29;;;;;;;;;;;;;;;6.77;84.54;99458.25;5014054;28;19921;-79
2023/05/08 03:56:54;;;;;;;;;;;;;;;6.96;84.69;99461.06;5040675;28;19967;-79
2023/05/08 03:59:40;;;;;;;;;;;;;;;6.68;84.60;99458.72;5036609;28;19929;-79
2023/05/08 04:02:12;;;;;;;;;;;;;;;7.11;84.92;99465.09;5022307;28;19925;-79
2023/05/08 04:04:41;;;;;;;;;;;;;;;6.65;84.69;99461.78;5043654;28;20489;-79
2023/05/08 04:07:12;;;;;;;;;;;;;;;6.88;84.31;99474.59;5030777;28;19925;-79
2023/05/08 04:09:44;;;;;;;;;;;;;;;6.70;84.84;99467.28;5031728;28;19960;-79
2023/05/08 04:12:20;;;;;;;;;;;;;;;6.69;85.81;99468.28;5046717;28;19968;-79
2023/05/08 04:14:51;;;;;;;;;;;;;;;6.69;85.39;99470.94;5046322;28;20006;-79
2023/05/08 04:17:21;;;;;;;;;;;;;;;6.73;85.20;99464.19;5034219;28;19920;-79
2023/05/08 04:19:50;;;;;;;;;;;;;;;6.83;84.64;99464.59;5037266;28;19924;-79
2023/05/08 04:22:18;;;;;;;;;;;;;;;6.89;84.89;99466.41;5021489;28;20010;-79
2023/05/08 04:24:45;;;;;;;;;;;;;;;6.72;85.07;99473.19;5042687;28;19920;-79
2023/05/08 04:27:11;;;;;;;;;;;;;;;6.93;84.93;99472.91;5011037;28;19932;-79
2023/05/08 04:29:36;;;;;;;;;;;;;;;6.68;85.04;99477.28;5040969;28;20582;-79
2023/05/08 04:32:03;;;;;;;;;;;;;;;6.80;86.13;99476.44;5027720;28;19924;-79
2023/05/08 04:34:29;;;;;;;;;;;;;;;6.97;86.43;99478.63;5023704;28;19994;-79
2023/05/08 04:36:54;;;;;;;;;;;;;;;7.15;84.97;99486.72;5044329;28;20015;-79
2023/05/08 04:39:21;;;;;;;;;;;;;;;6.96;84.75;99477.81;5025700;28;19924;-79
2023/05/08 04:41:47;;;;;;;;;;;;;;;7.10;85.01;99486.56;5026822;28;19929;-79
2023/05/08 04:44:13;;;;;;;;;;;;;;;7.44;84.50;99481.69;5042261;28;19917;-79
2023/05/08 04:46:38;;;;;;;;;;;;;;;7.44;84.50;99481.69;5010260;28;19990;-79
2023/05/08 04:49:03;;;;;;;;;;;;;;;7.35;82.62;99493.56;5025902;28;20552;-78
2023/05/08 04:51:28;;;;;;;;;;;;;;;7.54;82.90;99484.69;5043200;28;20553;-79
2023/05/08 04:53:54;;;;;;;;;;;;;;;7.73;83.59;99477.63;5041206;28;20016;-78
2023/05/08 04:56:19;;;;;;;;;;;;;;;7.89;82.53;99478.94;5028725;28;19928;-79
2023/05/08 04:58:44;;;;;;;;;;;;;;;7.72;82.56;99486.63;5027725;28;20019;-79
2023/05/08 05:01:10;;;;;;;;;;;;;;;7.61;83.78;99492.63;5030270;28;20024;-79
2023/05/08 05:03:35;;;;;;;;;;;;;;;7.17;83.71;99490.78;5033655;28;20071;-79
2023/05/08 05:06:00;;;;;;;;;;;;;;;7.22;85.35;99493.63;5045898;28;20011;-78
2023/05/08 05:08:26;;;;;;;;;;;;;;;7.32;83.68;99491.34;5046545;28;19917;-79
2023/05/08 05:10:51;;;;;;;;;;;;;;;7.63;83.18;99487.06;5047507;28;19917;-79
2023/05/08 05:13:17;;;;;;;;;;;;;;;7.67;83.29;99494.41;5046862;28;19917;-79
2023/05/08 05:15:42;;;;;;;;;;;;;;;7.75;82.99;99502.16;5028919;28;19978;-79
2023/05/08 05:18:07;;;;;;;;;;;;;;;7.49;82.80;99494.34;5029899;28;19924;-79
2023/05/08 05:20:33;;;;;;;;;;;;;;;7.56;82.65;99498.56;5041715;28;19976;-79
2023/05/08 05:22:58;;;;;;;;;;;;;;;7.81;82.97;99498.63;5028694;28;19932;-78
2023/05/08 05:25:23;;;;;;;;;;;;;;;7.60;83.66;99501.59;5028894;28;19921;-79
2023/05/08 05:27:49;;;;;;;;;;;;;;;7.76;83.31;99503.75;5048263;28;19923;-79
2023/05/08 05:30:14;;;;;;;;;;;;;;;8.01;82.15;99503.81;5027411;28;19917;-79
2023/05/08 05:32:39;;;;;;;;;;;;;;;7.78;83.23;99500.88;5029043;28;19956;-79
2023/05/08 05:35:05;;;;;;;;;;;;;;;8.46;80.97;99497.31;5031007;28;20411;-79
2023/05/08 05:37:30;;;;;;;;;;;;;;;8.60;80.28;99498.00;5046571;28;20007;-79
2023/05/08 05:39:55;;;;;;;;;;;;;;;8.04;82.76;99506.00;5025821;28;19928;-80
2023/05/08 05:42:21;;;;;;;;;;;;;;;7.81;82.30;99506.59;5043677;28;19931;-79
2023/05/08 05:44:46;;;;;;;;;;;;;;;7.95;83.47;99507.34;5015481;28;19921;-79
2023/05/08 05:47:11;;;;;;;;;;;;;;;7.86;82.51;99512.09;5042313;28;19928;-78
2023/05/08 05:49:38;;;;;;;;;;;;;;;8.45;80.44;99516.16;5023265;28;19925;-79
2023/05/08 05:52:03;;;;;;;;;;;;;;;8.49;81.19;99515.50;5031609;28;20388;-79
2023/05/08 05:54:28;;;;;;;;;;;;;;;8.23;80.10;99519.16;5025290;28;19916;-79
2023/05/08 05:56:54;;;;;;;;;;;;;;;9.21;79.29;99506.75;5015885;28;20388;-79
2023/05/08 05:59:19;;;;;;;;;;;;;;;8.37;80.65;99519.91;5032576;28;19941;-79
2023/05/08 06:01:44;;;;;;;;;;;;;;;9.19;79.33;99510.69;5031294;28;19925;-79
2023/05/08 06:04:09;;;;;;;;;;;;;;;8.49;80.95;99506.72;5045296;28;19925;-79
2023/05/08 06:06:35;;;;;;;;;;;;;;;8.92;80.12;99502.19;5015765;28;20004;-79
2023/05/08 06:09:00;;;;;;;;;;;;;;;8.81;79.84;99511.72;5032963;28;19917;-79
2023/05/08 06:11:25;;;;;;;;;;;;;;;9.36;78.55;99509.84;5022331;28;20011;-79
2023/05/08 06:13:50;;;;;;;;;;;;;;;9.90;77.36;99511.56;5049325;28;19921;-79
2023/05/08 06:16:16;;;;;;;;;;;;;;;9.90;77.48;99505.41;5044497;28;20470;-79
2023/05/08 06:18:41;;;;;;;;;;;;;;;9.88;77.02;99507.50;5049008;28;20395;-79
2023/05/08 06:21:06;;;;;;;;;;;;;;;10.02;76.96;99511.59;5047990;28;19925;-80
2023/05/08 06:23:32;;;;;;;;;;;;;;;9.66;77.81;99507.19;5032054;28;19921;-79
2023/05/08 06:25:57;;;;;;;;;;;;;;;9.34;78.09;99500.44;5047675;28;19923;-79
2023/05/08 06:28:24;;;;;;;;;;;;;;;9.98;77.35;99499.78;5046389;28;20384;-79
2023/05/08 06:30:50;;;;;;;;;;;;;;;9.87;76.70;99504.03;5009751;28;19948;-79
2023/05/08 06:33:15;;;;;;;;;;;;;;;9.80;78.02;99500.66;5039750;28;20018;-79
2023/05/08 06:35:40;;;;;;;;;;;;;;;10.23;76.85;99500.41;5043748;28;19928;-79
2023/05/08 06:38:06;;;;;;;;;;;;;;;10.41;76.07;99501.16;5011274;28;19935;-79
2023/05/08 06:40:31;;;;;;;;;;;;;;;10.91;74.53;99503.31;5026292;28;19927;-79
2023/05/08 06:42:56;;;;;;;;;;;;;;;10.04;77.19;99498.84;5042984;28;20588;-80
2023/05/08 06:45:21;;;;;;;;;;;;;;;10.61;76.30;99497.31;5028115;28;20280;-79
2023/05/08 06:47:46;;;;;;;;;;;;;;;10.50;77.45;99507.78;5021011;28;20380;-79
2023/05/08 06:50:12;;;;;;;;;;;;;;;10.45;76.96;99498.81;5040608;28;19924;-79
2023/05/08 06:52:37;;;;;;;;;;;;;;;10.12;77.37;99504.69;5007077;28;20008;-79
2023/05/08 06:55:02;;;;;;;;;;;;;;;10.37;77.44;99497.31;5049246;28;19947;-79
2023/05/08 06:57:29;;;;;;;;;;;;;;;10.31;76.11;99494.75;5024903;28;19931;-79
2023/05/08 06:59:54;;;;;;;;;;;;;;;10.18;77.44;99498.44;5024983;28;19925;-79
2023/05/08 07:02:19;;;;;;;;;;;;;;;10.72;76.32;99500.00;5044437;28;19927;-79
2023/05/08 07:04:45;;;;;;;;;;;;;;;10.11;77.48;99487.06;5033411;28;19923;-79
2023/05/08 07:07:11;;;;;;;;;;;;;;;9.98;77.82;99497.09;5042340;28;19979;-79
2023/05/08 07:09:36;;;;;;;;;;;;;;;10.51;77.36;99495.22;5026157;28;20392;-80
2023/05/08 07:12:02;;;;;;;;;;;;;;;11.29;75.50;99498.28;5019252;28;20031;-80
2023/05/08 07:14:27;;;;;;;;;;;;;;;11.70;73.09;99502.56;5050998;28;19917;-80
2023/05/08 07:16:52;;;;;;;;;;;;;;;11.47;74.33;99505.28;5029191;28;19962;-79
2023/05/08 07:19:18;;;;;;;;;;;;;;;12.06;72.12;99510.16;5039970;28;19935;-80
2023/05/08 07:21:45;;;;;;;;;;;;;;;11.67;73.96;99493.16;5044412;28;19932;-80
2023/05/08 07:24:10;;;;;;;;;;;;;;;12.18;71.99;99505.56;5032816;28;20342;-80
2023/05/08 07:26:35;;;;;;;;;;;;;;;11.84;73.25;99510.03;5053767;28;19916;-80
2023/05/08 07:29:00;;;;;;;;;;;;;;;11.70;74.86;99500.69;5053088;28;19928;-80
2023/05/08 07:31:26;;;;;;;;;;;;;;;12.49;70.94;99504.19;5028371;28;19959;-80
2023/05/08 07:33:51;;;;;;;;;;;;;;;11.76;72.76;99497.06;5043123;28;19925;-79
2023/05/08 07:36:16;;;;;;;;;;;;;;;11.55;74.03;99499.56;5040235;28;19916;-79
2023/05/08 07:38:41;;;;;;;;;;;;;;;12.27;72.81;99495.25;5030365;28;20385;-79
2023/05/08 07:41:07;;;;;;;;;;;;;;;11.62;73.94;99493.00;5028641;28;20000;-80
2023/05/08 07:43:32;;;;;;;;;;;;;;;12.37;72.30;99498.06;5014742;28;19920;-79
2023/05/08 07:45:57;;;;;;;;;;;;;;;12.49;71.89;99493.47;5032548;28;19925;-79
2023/05/08 07:48:23;;;;;;;;;;;;;;;12.52;71.42;99491.09;5028935;28;20043;-79
2023/05/08 07:50:49;;;;;;;;;;;;;;;12.85;70.15;99484.88;5053214;28;20324;-80
2023/05/08 07:53:14;;;;;;;;;;;;;;;12.17;72.71;99492.41;5030051;28;19970;-80
2023/05/08 07:55:39;;;;;;;;;;;;;;;12.07;73.82;99500.25;5051859;28;20015;-80
2023/05/08 07:58:05;;;;;;;;;;;;;;;11.60;75.03;99502.34;5034814;28;20325;-80
2023/05/08 08:00:30;;;;;;;;;;;;;;;12.38;73.74;99495.19;5032703;28;19921;-80
2023/05/08 08:02:56;;;;;;;;;;;;;;;11.96;74.73;99494.75;5012788;28;19924;-79
2023/05/08 08:05:21;;;;;;;;;;;;;;;12.47;73.04;99492.91;5051242;28;19924;-79
2023/05/08 08:07:47;;;;;;;;;;;;;;;12.76;73.92;99497.88;5033260;28;19975;-80
2023/05/08 08:10:12;;;;;;;;;;;;;;;13.18;70.34;99503.56;5023505;28;19929;-80
2023/05/08 08:12:37;;;;;;;;;;;;;;;13.29;70.79;99499.97;5029785;28;20214;-80
2023/05/08 08:15:03;;;;;;;;;;;;;;;12.89;71.98;99502.06;5005780;28;19999;-79
2023/05/08 08:17:28;;;;;;;;;;;;;;;13.25;70.97;99488.13;5027096;28;20019;-80
2023/05/08 08:19:53;;;;;;;;;;;;;;;13.20;71.82;99493.41;5015125;28;19957;-80
2023/05/08 08:22:19;;;;;;;;;;;;;;;13.62;69.63;99495.50;5015622;28;20436;-80
2023/05/08 08:24:44;;;;;;;;;;;;;;;13.54;70.03;99502.91;5048422;28;20342;-80
2023/05/08 08:27:09;;;;;;;;;;;;;;;13.66;69.64;99496.59;5014612;28;19959;-80
2023/05/08 08:29:35;;;;;;;;;;;;;;;13.47;70.97;99499.66;5032310;28;20355;-79
2023/05/08 08:32:02;;;;;;;;;;;;;;;13.24;71.91;99497.22;5012204;28;19952;-80
2023/05/08 08:34:27;;;;;;;;;;;;;;;13.81;69.56;99507.50;5050116;28;20283;-79
2023/05/08 08:36:52;;;;;;;;;;;;;;;13.81;69.95;99502.13;5031249;28;19921;-80
2023/05/08 08:39:17;;;;;;;;;;;;;;;13.65;70.77;99503.06;5032244;28;19925;-80
2023/05/08 08:41:43;;;;;;;;;;;;;;;14.19;68.93;99501.97;5049552;28;19936;-80
2023/05/08 08:44:08;;;;;;;;;;;;;;;14.13;70.09;99508.38;5046754;28;19968;-80
2023/05/08 08:46:34;;;;;;;;;;;;;;;14.03;71.21;99501.00;5026641;28;20035;-80
2023/05/08 08:49:01;;;;;;;;;;;;;;;14.19;71.43;99500.09;5046416;28;19925;-80
2023/05/08 08:51:30;;;;;;;;;;;;;;;13.71;70.68;99494.81;5028457;28;19921;-80
2023/05/08 08:54:10;;;;;;;;;;;;;;;14.34;69.81;99509.34;5040534;28;20285;-80
2023/05/08 08:56:37;;;;;;;;;;;;;;;13.89;69.81;99497.09;5025684;28;19921;-80
2023/05/08 08:59:03;;;;;;;;;;;;;;;14.47;69.54;99493.63;5044966;28;19982;-80
2023/05/08 09:01:29;;;;;;;;;;;;;;;14.71;69.11;99499.44;5040636;28;19931;-80
2023/05/08 09:03:58;;;;;;;;;;;;;;;14.60;69.16;99503.09;5044299;28;19925;-79
2023/05/08 09:06:23;;;;;;;;;;;;;;;15.08;67.23;99496.69;5028566;28;20363;-80
2023/05/08 09:08:49;;;;;;;;;;;;;;;14.76;69.60;99502.97;5047368;28;20004;-80
2023/05/08 09:11:14;;;;;;;;;;;;;;;14.92;68.70;99510.03;5049814;28;20388;-79
2023/05/08 09:13:39;;;;;;;;;;;;;;;14.99;67.71;99505.25;5025904;28;19921;-80
2023/05/08 09:16:05;;;;;;;;;;;;;;;14.61;68.00;99504.75;5008355;28;19924;-80
2023/05/08 09:18:30;;;;;;;;;;;;;;;14.97;68.00;99498.50;5045355;28;20054;-80
2023/05/08 09:20:55;;;;;;;;;;;;;;;14.75;68.12;99495.97;5033365;28;19928;-80
2023/05/08 09:23:21;;;;;;;;;;;;;;;15.44;66.93;99490.41;5047176;28;19961;-80
2023/05/08 09:25:47;;;;;;;;;;;;;;;15.28;67.60;99494.91;5049731;28;20003;-80
2023/05/08 09:28:15;;;;;;;;;;;;;;;15.54;66.66;99487.75;5043011;28;19920;-80
2023/05/08 09:30:56;;;;;;;;;;;;;;;15.47;66.55;99493.38;5045402;28;20376;-80
2023/05/08 09:33:24;;;;;;;;;;;;;;;15.03;66.94;99498.28;5040482;28;19962;-80
2023/05/08 09:35:49;;;;;;;;;;;;;;;15.32;66.54;99490.59;5047771;28;20066;-80
2023/05/08 09:38:42;;;;;;;;;;;;;;;15.42;66.03;99490.63;5032766;28;19924;-80
2023/05/08 09:41:13;;;;;;;;;;;;;;;15.47;66.08;99485.31;5041058;28;19928;-80
2023/05/08 09:43:38;;;;;;;;;;;;;;;15.00;65.55;99488.03;5048616;28;20003;-80
2023/05/08 09:46:24;;;;;;;;;;;;;;;14.40;67.25;99484.97;5041456;28;20351;-80
2023/05/08 09:48:50;;;;;;;;;;;;;;;14.38;65.87;99488.97;5025545;28;19924;-80
2023/05/08 09:51:16;;;;;;;;;;;;;;;14.29;67.74;99488.66;5041551;28;20165;-80
2023/05/08 09:53:41;;;;;;;;;;;;;;;14.81;67.55;99486.03;5045048;28;20487;-79
2023/05/08 09:56:07;;;;;;;;;;;;;;;14.61;68.19;99486.72;5043393;28;19962;-79
2023/05/08 09:58:39;;;;;;;;;;;;;;;14.57;67.37;99490.22;5047184;28;20377;-80
2023/05/08 10:01:05;;;;;;;;;;;;;;;14.40;67.53;99493.03;5044411;28;19948;-80
2023/05/08 10:03:46;;;;;;;;;;;;;;;14.73;68.10;99497.28;5025649;28;19924;-80
2023/05/08 10:06:13;;;;;;;;;;;;;;;14.92;67.73;99487.72;5049038;28;19924;-80
2023/05/08 10:08:38;;;;;;;;;;;;;;;14.94;66.46;99485.56;5044240;28;19920;-80
2023/05/08 10:11:13;;;;;;;;;;;;;;;14.86;67.02;99489.59;5043387;28;19928;-79
2023/05/08 10:13:39;;;;;;;;;;;;;;;15.15;65.98;99479.25;5050984;28;19921;-80
2023/05/08 10:16:04;;;;;;;;;;;;;;;15.14;68.00;99476.78;5016600;28;20432;-79
2023/05/08 10:18:32;;;;;;;;;;;;;;;14.99;66.76;99489.13;5044082;28;20407;-80
2023/05/08 10:20:59;;;;;;;;;;;;;;;14.96;67.04;99478.88;5040917;28;20300;-79
2023/05/08 10:23:25;;;;;;;;;;;;;;;15.33;67.30;99470.69;5028714;28;19972;-79
2023/05/08 10:25:54;;;;;;;;;;;;;;;15.69;66.00;99468.94;5022607;28;20019;-80
2023/05/08 10:28:27;;;;;;;;;;;;;;;15.74;65.63;99480.56;5043126;28;20026;-80
2023/05/08 10:30:55;;;;;;;;;;;;;;;15.83;66.78;99480.84;5031530;28;19917;-80
2023/05/08 10:33:24;;;;;;;;;;;;;;;15.29;65.70;99468.81;5031463;28;19997;-79
2023/05/08 10:35:50;;;;;;;;;;;;;;;15.58;66.52;99470.00;5032634;28;20015;-79
2023/05/08 10:38:15;;;;;;;;;;;;;;;15.50;66.25;99467.84;5030634;28;20027;-80
2023/05/08 10:40:40;;;;;;;;;;;;;;;15.72;67.88;99463.84;5043632;28;20369;-79
2023/05/08 10:43:06;;;;;;;;;;;;;;;16.44;66.22;99465.50;5048593;28;19921;-80
2023/05/08 10:45:31;;;;;;;;;;;;;;;16.23;64.37;99458.47;5038468;28;20014;-80
2023/05/08 10:48:06;;;;;;;;;;;;;;;16.54;65.74;99453.91;5034976;28;19960;-80
2023/05/08 10:50:36;;;;;;;;;;;;;;;16.98;64.24;99465.66;5034441;28;19925;-80
2023/05/08 10:53:06;;;;;;;;;;;;;;;16.83;63.38;99447.66;5053483;28;19970;-80
2023/05/08 10:55:32;;;;;;;;;;;;;;;17.51;63.22;99459.53;5051643;28;19921;-80
2023/05/08 10:58:09;;;;;;;;;;;;;;;17.59;63.00;99458.13;5047391;28;20288;-80
2023/05/08 11:00:53;;;;;;;;;;;;;;;17.84;61.88;99456.06;5049762;28;19948;-80
2023/05/08 11:03:19;;;;;;;;;;;;;;;17.21;61.45;99446.19;5031842;28;20141;-80
2023/05/08 11:05:46;;;;;;;;;;;;;;;17.40;63.13;99441.75;5029953;28;19925;-80
2023/05/08 11:08:16;;;;;;;;;;;;;;;17.40;62.23;99439.06;5033140;28;19920;-80
2023/05/08 11:10:42;;;;;;;;;;;;;;;17.37;63.04;99444.19;5046000;28;19971;-80
2023/05/08 11:13:08;;;;;;;;;;;;;;;17.56;61.61;99443.28;5033595;28;20470;-80
2023/05/08 11:15:37;;;;;;;;;;;;;;;18.39;61.33;99432.41;5033763;28;19921;-80
2023/05/08 11:18:04;;;;;;;;;;;;;;;18.71;59.78;99440.75;5030734;28;19917;-81
2023/05/08 11:20:54;;;;;;;;;;;;;;;18.93;58.99;99437.53;5044731;28;19983;-80
2023/05/08 11:23:26;;;;;;;;;;;;;;;18.79;59.52;99434.72;5028417;28;19956;-80
2023/05/08 11:26:02;;;;;;;;;;;;;;;18.82;59.32;99431.44;5053832;28;20359;-80
2023/05/08 11:28:30;;;;;;;;;;;;;;;19.36;57.66;99421.06;5035341;28;19916;-80
2023/05/08 11:30:55;;;;;;;;;;;;;;;19.46;58.19;99430.94;5053740;28;20284;-80
2023/05/08 11:33:21;;;;;;;;;;;;;;;19.31;56.17;99417.56;5033248;28;19925;-80
2023/05/08 11:36:05;;;;;;;;;;;;;;;19.37;58.18;99414.53;5052003;28;19986;-80
2023/05/08 11:38:34;;;;;;;;;;;;;;;18.96;55.88;99420.75;5031003;28;19924;-80
2023/05/08 11:41:06;;;;;;;;;;;;;;;19.74;57.27;99410.22;5012155;28;19964;-80
2023/05/08 11:43:32;;;;;;;;;;;;;;;19.83;56.99;99413.88;5053405;28;20331;-80
2023/05/08 11:46:05;;;;;;;;;;;;;;;19.94;56.46;99407.19;5050851;28;19916;-80
2023/05/08 11:48:31;;;;;;;;;;;;;;;20.28;56.16;99406.91;5028788;28;19921;-80
2023/05/08 11:50:58;;;;;;;;;;;;;;;20.50;56.03;99407.88;5024798;28;19925;-80
2023/05/08 11:53:23;;;;;;;;;;;;;;;20.60;56.10;99413.09;5028408;28;19932;-80
2023/05/08 11:55:51;;;;;;;;;;;;;;;19.91;53.96;99411.31;5046318;28;19932;-80
2023/05/08 11:58:16;;;;;;;;;;;;;;;19.76;56.40;99405.31;5028052;28;19921;-80
2023/05/08 12:00:43;;;;;;;;;;;;;;;19.88;54.55;99409.16;5044944;28;19939;-80
2023/05/08 12:03:12;;;;;;;;;;;;;;;20.52;55.15;99402.94;5048742;28;19925;-80
2023/05/08 12:05:37;;;;;;;;;;;;;;;20.54;56.40;99413.50;5031597;28;19917;-80
2023/05/08 12:08:05;;;;;;;;;;;;;;;20.81;54.16;99408.91;5046097;28;19956;-80
2023/05/08 12:10:30;;;;;;;;;;;;;;;20.55;54.43;99421.31;5051733;28;19916;-80
2023/05/08 12:12:55;;;;;;;;;;;;;;;20.61;52.70;99414.72;5030759;28;19947;-80
2023/05/08 12:15:21;;;;;;;;;;;;;;;20.46;52.53;99401.44;5026373;28;19971;-80
2023/05/08 12:17:46;;;;;;;;;;;;;;;20.21;53.53;99412.72;5047156;28;19921;-80
2023/05/08 12:20:16;;;;;;;;;;;;;;;20.63;54.98;99412.50;5012732;28;19929;-80
2023/05/08 12:22:41;;;;;;;;;;;;;;;21.26;54.16;99409.09;5030880;28;20332;-80
2023/05/08 12:25:08;;;;;;;;;;;;;;;21.10;52.35;99410.53;5049923;28;19963;-80
2023/05/08 12:27:34;;;;;;;;;;;;;;;21.52;52.59;99401.97;5025795;28;20265;-80
2023/05/08 12:30:03;;;;;;;;;;;;;;;21.94;53.78;99412.44;5047714;28;20392;-81
2023/05/08 12:32:29;;;;;;;;;;;;;;;22.16;50.85;99412.44;5029319;28;19927;-81
2023/05/08 12:34:54;;;;;;;;;;;;;;;22.37;52.42;99407.25;5016429;28;19920;-81
2023/05/08 12:37:25;;;;;;;;;;;;;;;22.48;51.44;99415.94;5033890;28;19940;-81
2023/05/08 12:39:50;;;;;;;;;;;;;;;22.53;52.37;99405.75;5046966;28;19921;-80
2023/05/08 12:42:16;;;;;;;;;;;;;;;22.56;51.20;99407.84;5026311;28;19947;-81
2023/05/08 12:44:48;;;;;;;;;;;;;;;22.90;50.82;99407.22;5048142;28;19952;-81
2023/05/08 12:47:14;;;;;;;;;;;;;;;22.99;47.63;99408.03;5047968;28;19917;-80
2023/05/08 12:49:39;;;;;;;;;;;;;;;23.13;50.66;99410.66;5029372;28;19986;-81
2023/05/08 12:52:04;;;;;;;;;;;;;;;23.32;46.77;99403.81;5017652;28;19921;-81
2023/05/08 12:54:33;;;;;;;;;;;;;;;23.07;46.76;99407.25;5030386;28;19924;-80